sensor_id;sensor_type;location;lat;lon;timestamp;pressure;altitude;pressure_sealevel;temperature;humidity
32081;BME280;18593;51.426;7.030;2023-07-13T00:02:07;100441.59;;;20.29;48.56
32081;BME280;18593;51.426;7.030;2023-07-13T00:04:34;100431.31;;;20.26;48.33
32081;BME280;18593;51.426;7.030;2023-07-13T00:07:02;100432.97;;;20.22;48.54
32081;BME280;18593;51.426;7.030;2023-07-13T00:09:31;100436.75;;;20.21;48.60
32081;BME280;18593;51.426;7.030;2023-07-13T00:11:58;100443.53;;;20.18;48.76
32081;BME280;18593;51.426;7.030;2023-07-13T00:14:27;100428.91;;;20.14;48.56
32081;BME280;18593;51.426;7.030;2023-07-13T00:16:56;100429.47;;;20.11;48.48
32081;BME280;18593;51.426;7.030;2023-07-13T00:19:23;100428.91;;;20.09;48.77
32081;BME280;18593;51.426;7.030;2023-07-13T00:21:50;100434.91;;;20.06;48.36
32081;BME280;18593;51.426;7.030;2023-07-13T00:24:21;100427.06;;;19.99;48.45
32081;BME280;18593;51.426;7.030;2023-07-13T00:26:51;100435.19;;;19.99;48.77
32081;BME280;18593;51.426;7.030;2023-07-13T00:29:19;100430.03;;;19.98;49.16
32081;BME280;18593;51.426;7.030;2023-07-13T00:31:46;100432.19;;;19.96;48.83
32081;BME280;18593;51.426;7.030;2023-07-13T00:34:14;100440.06;;;19.92;48.48
32081;BME280;18593;51.426;7.030;2023-07-13T00:36:41;100433.59;;;19.88;48.74
32081;BME280;18593;51.426;7.030;2023-07-13T00:39:09;100435.75;;;19.86;48.81
32081;BME280;18593;51.426;7.030;2023-07-13T00:41:36;100433.31;;;19.85;48.92
32081;BME280;18593;51.426;7.030;2023-07-13T00:44:05;100435.22;;;19.84;48.87
32081;BME280;18593;51.426;7.030;2023-07-13T00:46:36;100437.66;;;19.80;48.51
32081;BME280;18593;51.426;7.030;2023-07-13T00:49:06;100439.03;;;19.78;48.99
32081;BME280;18593;51.426;7.030;2023-07-13T00:51:36;100436.59;;;19.76;48.83
32081;BME280;18593;51.426;7.030;2023-07-13T00:54:09;100430.91;;;19.73;48.81
32081;BME280;18593;51.426;7.030;2023-07-13T00:56:40;100439.03;;;19.73;48.54
32081;BME280;18593;51.426;7.030;2023-07-13T00:59:11;100431.16;;;19.71;48.80
32081;BME280;18593;51.426;7.030;2023-07-13T01:01:39;100425.75;;;19.71;48.89
32081;BME280;18593;51.426;7.030;2023-07-13T01:04:06;100433.06;;;19.71;49.05
32081;BME280;18593;51.426;7.030;2023-07-13T01:06:34;100436.84;;;19.70;48.98
32081;BME280;18593;51.426;7.030;2023-07-13T01:09:02;100432.00;;;19.67;48.83
32081;BME280;18593;51.426;7.030;2023-07-13T01:11:31;100433.88;;;19.66;49.16
32081;BME280;18593;51.426;7.030;2023-07-13T01:13:58;100427.94;;;19.64;48.98
32081;BME280;18593;51.426;7.030;2023-07-13T01:16:32;100430.13;;;19.62;48.95
32081;BME280;18593;51.426;7.030;2023-07-13T01:19:00;100433.06;;;19.61;48.83
32081;BME280;18593;51.426;7.030;2023-07-13T01:21:33;100427.91;;;19.59;49.09
32081;BME280;18593;51.426;7.030;2023-07-13T01:24:00;100428.19;;;19.58;49.44
32081;BME280;18593;51.426;7.030;2023-07-13T01:26:28;100427.09;;;19.59;49.34
32081;BME280;18593;51.426;7.030;2023-07-13T01:28:55;100414.09;;;19.55;49.16
32081;BME280;18593;51.426;7.030;2023-07-13T01:31:23;100420.59;;;19.54;49.20
32081;BME280;18593;51.426;7.030;2023-07-13T01:33:51;100421.16;;;19.51;48.97
32081;BME280;18593;51.426;7.030;2023-07-13T01:36:20;100424.13;;;19.50;49.35
32081;BME280;18593;51.426;7.030;2023-07-13T01:38:49;100431.44;;;19.49;49.23
32081;BME280;18593;51.426;7.030;2023-07-13T01:41:16;100425.22;;;19.49;49.42
32081;BME280;18593;51.426;7.030;2023-07-13T01:43:46;100423.59;;;19.48;49.28
32081;BME280;18593;51.426;7.030;2023-07-13T01:46:13;100425.50;;;19.47;49.37
32081;BME280;18593;51.426;7.030;2023-07-13T01:48:40;100431.16;;;19.46;49.13
32081;BME280;18593;51.426;7.030;2023-07-13T01:51:07;100430.34;;;19.45;49.38
32081;BME280;18593;51.426;7.030;2023-07-13T01:53:35;100443.59;;;19.42;49.39
32081;BME280;18593;51.426;7.030;2023-07-13T01:56:04;100441.16;;;19.40;49.78
32081;BME280;18593;51.426;7.030;2023-07-13T01:58:32;100443.34;;;19.38;49.65
32081;BME280;18593;51.426;7.030;2023-07-13T02:00:59;100447.38;;;19.36;50.09
32081;BME280;18593;51.426;7.030;2023-07-13T02:03:27;100443.06;;;19.35;49.82
32081;BME280;18593;51.426;7.030;2023-07-13T02:05:58;100444.69;;;19.30;50.03
32081;BME280;18593;51.426;7.030;2023-07-13T02:08:25;100447.66;;;19.29;50.11
32081;BME280;18593;51.426;7.030;2023-07-13T02:10:52;100448.19;;;19.26;50.25
32081;BME280;18593;51.426;7.030;2023-07-13T02:13:21;100441.16;;;19.25;50.01
32081;BME280;18593;51.426;7.030;2023-07-13T02:15:50;100453.31;;;19.22;49.73
32081;BME280;18593;51.426;7.030;2023-07-13T02:18:18;100446.84;;;19.18;50.28
32081;BME280;18593;51.426;7.030;2023-07-13T02:20:45;100444.69;;;19.15;50.29
32081;BME280;18593;51.426;7.030;2023-07-13T02:23:13;100444.94;;;19.14;49.97
32081;BME280;18593;51.426;7.030;2023-07-13T02:25:40;100440.88;;;19.11;50.37
32081;BME280;18593;51.426;7.030;2023-07-13T02:28:08;100450.88;;;19.11;50.69
32081;BME280;18593;51.426;7.030;2023-07-13T02:30:37;100443.84;;;19.10;50.58
32081;BME280;18593;51.426;7.030;2023-07-13T02:33:04;100443.84;;;19.10;50.55
32081;BME280;18593;51.426;7.030;2023-07-13T02:35:32;100449.81;;;19.12;50.29
32081;BME280;18593;51.426;7.030;2023-07-13T02:37:59;100439.25;;;19.10;50.39
32081;BME280;18593;51.426;7.030;2023-07-13T02:40:27;100440.06;;;19.11;50.36
32081;BME280;18593;51.426;7.030;2023-07-13T02:42:54;100438.44;;;19.10;50.09
32081;BME280;18593;51.426;7.030;2023-07-13T02:45:21;100440.88;;;19.06;50.18
32081;BME280;18593;51.426;7.030;2023-07-13T02:47:50;100437.88;;;19.02;50.33
32081;BME280;18593;51.426;7.030;2023-07-13T02:50:17;100444.09;;;19.03;50.54
32081;BME280;18593;51.426;7.030;2023-07-13T02:52:45;100446.56;;;18.99;50.81
32081;BME280;18593;51.426;7.030;2023-07-13T02:55:12;100440.84;;;18.96;50.57
32081;BME280;18593;51.426;7.030;2023-07-13T02:57:40;100448.69;;;18.92;50.94
32081;BME280;18593;51.426;7.030;2023-07-13T03:00:09;100450.03;;;18.90;50.83
32081;BME280;18593;51.426;7.030;2023-07-13T03:02:36;100447.59;;;18.88;50.88
32081;BME280;18593;51.426;7.030;2023-07-13T03:05:06;100454.34;;;18.86;51.21
32081;BME280;18593;51.426;7.030;2023-07-13T03:07:38;100463.53;;;18.85;51.08
32081;BME280;18593;51.426;7.030;2023-07-13T03:10:08;100454.06;;;18.82;51.38
32081;BME280;18593;51.426;7.030;2023-07-13T03:12:42;100463.78;;;18.78;51.38
32081;BME280;18593;51.426;7.030;2023-07-13T03:15:17;100458.13;;;18.74;51.65
32081;BME280;18593;51.426;7.030;2023-07-13T03:17:46;100462.16;;;18.77;51.70
32081;BME280;18593;51.426;7.030;2023-07-13T03:20:16;100449.19;;;18.74;51.66
32081;BME280;18593;51.426;7.030;2023-07-13T03:22:44;100462.94;;;18.72;51.58
32081;BME280;18593;51.426;7.030;2023-07-13T03:25:12;100461.34;;;18.71;51.87
32081;BME280;18593;51.426;7.030;2023-07-13T03:27:39;100458.91;;;18.70;51.88
32081;BME280;18593;51.426;7.030;2023-07-13T03:30:09;100460.47;;;18.66;52.12
32081;BME280;18593;51.426;7.030;2023-07-13T03:32:37;100465.88;;;18.66;52.07
32081;BME280;18593;51.426;7.030;2023-07-13T03:35:05;100458.31;;;18.68;51.97
32081;BME280;18593;51.426;7.030;2023-07-13T03:37:34;100457.50;;;18.67;52.09
32081;BME280;18593;51.426;7.030;2023-07-13T03:40:12;100468.06;;;18.69;51.94
32081;BME280;18593;51.426;7.030;2023-07-13T03:42:43;100475.88;;;18.65;52.23
32081;BME280;18593;51.426;7.030;2023-07-13T03:45:11;100475.59;;;18.62;52.50
32081;BME280;18593;51.426;7.030;2023-07-13T03:47:38;100476.66;;;18.61;52.61
32081;BME280;18593;51.426;7.030;2023-07-13T03:50:07;100484.78;;;18.61;52.67
32081;BME280;18593;51.426;7.030;2023-07-13T03:52:36;100480.72;;;18.63;52.43
32081;BME280;18593;51.426;7.030;2023-07-13T03:55:04;100483.97;;;18.65;52.56
32081;BME280;18593;51.426;7.030;2023-07-13T03:57:32;100478.81;;;18.64;52.91
32081;BME280;18593;51.426;7.030;2023-07-13T04:00:01;100478.81;;;18.64;52.88
32081;BME280;18593;51.426;7.030;2023-07-13T04:02:30;100481.50;;;18.59;52.96
32081;BME280;18593;51.426;7.030;2023-07-13T04:04:57;100490.72;;;18.63;53.23
32081;BME280;18593;51.426;7.030;2023-07-13T04:07:25;100494.22;;;18.63;53.17
32081;BME280;18593;51.426;7.030;2023-07-13T04:09:53;100497.22;;;18.67;53.27
32081;BME280;18593;51.426;7.030;2023-07-13T04:12:21;100499.38;;;18.65;53.39
32081;BME280;18593;51.426;7.030;2023-07-13T04:14:48;100501.78;;;18.61;53.34
32081;BME280;18593;51.426;7.030;2023-07-13T04:17:16;100505.00;;;18.58;53.54
32081;BME280;18593;51.426;7.030;2023-07-13T04:19:43;100498.28;;;18.61;53.53
32081;BME280;18593;51.426;7.030;2023-07-13T04:22:10;100500.63;;;18.47;53.67
32081;BME280;18593;51.426;7.030;2023-07-13T04:24:37;100503.06;;;18.48;53.97
32081;BME280;18593;51.426;7.030;2023-07-13T04:27:07;100504.41;;;18.46;54.06
32081;BME280;18593;51.426;7.030;2023-07-13T04:29:34;100512.56;;;18.51;54.18
32081;BME280;18593;51.426;7.030;2023-07-13T04:32:01;100509.56;;;18.52;54.31
32081;BME280;18593;51.426;7.030;2023-07-13T04:34:28;100509.06;;;18.56;54.14
32081;BME280;18593;51.426;7.030;2023-07-13T04:36:56;100514.22;;;18.62;54.42
32081;BME280;18593;51.426;7.030;2023-07-13T04:39:23;100520.41;;;18.58;54.65
32081;BME280;18593;51.426;7.030;2023-07-13T04:41:50;100507.44;;;18.55;54.57
32081;BME280;18593;51.426;7.030;2023-07-13T04:44:19;100505.81;;;18.59;54.99
32081;BME280;18593;51.426;7.030;2023-07-13T04:46:46;100512.31;;;18.58;54.85
32081;BME280;18593;51.426;7.030;2023-07-13T04:49:13;100512.03;;;18.59;54.93
32081;BME280;18593;51.426;7.030;2023-07-13T04:51:41;100508.59;;;18.69;54.99
32081;BME280;18593;51.426;7.030;2023-07-13T04:54:08;100518.28;;;18.65;55.44
32081;BME280;18593;51.426;7.030;2023-07-13T04:56:35;100514.50;;;18.66;55.08
32081;BME280;18593;51.426;7.030;2023-07-13T04:59:02;100522.09;;;18.69;55.69
32081;BME280;18593;51.426;7.030;2023-07-13T05:01:31;100523.75;;;18.70;55.63
32081;BME280;18593;51.426;7.030;2023-07-13T05:03:58;100516.75;;;18.74;55.50
32081;BME280;18593;51.426;7.030;2023-07-13T05:06:25;100530.25;;;18.74;55.64
32081;BME280;18593;51.426;7.030;2023-07-13T05:08:53;100522.66;;;18.71;56.10
32081;BME280;18593;51.426;7.030;2023-07-13T05:11:20;100534.81;;;18.73;56.14
32081;BME280;18593;51.426;7.030;2023-07-13T05:13:48;100519.16;;;18.75;56.27
32081;BME280;18593;51.426;7.030;2023-07-13T05:16:15;100525.91;;;18.73;55.97
32081;BME280;18593;51.426;7.030;2023-07-13T05:18:43;100528.38;;;18.80;56.16
32081;BME280;18593;51.426;7.030;2023-07-13T05:21:11;100530.28;;;18.79;56.48
32081;BME280;18593;51.426;7.030;2023-07-13T05:23:39;100537.53;;;18.78;56.41
32081;BME280;18593;51.426;7.030;2023-07-13T05:26:07;100540.53;;;18.82;56.20
32081;BME280;18593;51.426;7.030;2023-07-13T05:28:34;100542.19;;;18.88;56.46
32081;BME280;18593;51.426;7.030;2023-07-13T05:31:02;100535.97;;;18.93;56.03
32081;BME280;18593;51.426;7.030;2023-07-13T05:33:29;100537.88;;;18.97;56.04
32081;BME280;18593;51.426;7.030;2023-07-13T05:35:58;100541.69;;;18.96;56.39
32081;BME280;18593;51.426;7.030;2023-07-13T05:38:26;100545.78;;;19.09;55.96
32081;BME280;18593;51.426;7.030;2023-07-13T05:40:55;100550.97;;;19.31;55.72
32081;BME280;18593;51.426;7.030;2023-07-13T05:43:23;100541.81;;;19.52;56.00
32081;BME280;18593;51.426;7.030;2023-07-13T05:45:52;100540.75;;;19.53;55.37
32081;BME280;18593;51.426;7.030;2023-07-13T05:48:20;100545.91;;;19.60;55.54
32081;BME280;18593;51.426;7.030;2023-07-13T05:50:47;100556.19;;;19.63;55.03
32081;BME280;18593;51.426;7.030;2023-07-13T05:53:16;100554.59;;;19.67;54.93
32081;BME280;18593;51.426;7.030;2023-07-13T05:55:44;100553.50;;;19.68;55.11
32081;BME280;18593;51.426;7.030;2023-07-13T05:58:13;100561.06;;;19.66;54.99
32081;BME280;18593;51.426;7.030;2023-07-13T06:00:41;100559.72;;;19.74;55.18
32081;BME280;18593;51.426;7.030;2023-07-13T06:03:08;100558.09;;;19.93;55.10
32081;BME280;18593;51.426;7.030;2023-07-13T06:05:37;100561.63;;;20.04;54.22
32081;BME280;18593;51.426;7.030;2023-07-13T06:08:06;100565.69;;;20.17;55.25
32081;BME280;18593;51.426;7.030;2023-07-13T06:10:35;100570.28;;;20.21;54.23
32081;BME280;18593;51.426;7.030;2023-07-13T06:13:03;100565.66;;;20.27;54.90
32081;BME280;18593;51.426;7.030;2023-07-13T06:15:30;100574.28;;;20.39;54.49
32081;BME280;18593;51.426;7.030;2023-07-13T06:17:58;100558.59;;;20.56;53.79
32081;BME280;18593;51.426;7.030;2023-07-13T06:20:25;100567.78;;;20.66;53.45
32081;BME280;18593;51.426;7.030;2023-07-13T06:22:52;100575.06;;;20.75;53.61
32081;BME280;18593;51.426;7.030;2023-07-13T06:25:19;100573.94;;;20.87;53.26
32081;BME280;18593;51.426;7.030;2023-07-13T06:27:48;100576.94;;;20.85;53.47
32081;BME280;18593;51.426;7.030;2023-07-13T06:30:15;100575.25;;;20.99;54.01
32081;BME280;18593;51.426;7.030;2023-07-13T06:32:42;100581.75;;;21.03;53.29
32081;BME280;18593;51.426;7.030;2023-07-13T06:35:10;100574.94;;;21.06;53.65
32081;BME280;18593;51.426;7.030;2023-07-13T06:37:39;100581.72;;;21.08;53.04
32081;BME280;18593;51.426;7.030;2023-07-13T06:40:08;100581.69;;;21.14;52.60
32081;BME280;18593;51.426;7.030;2023-07-13T06:42:35;100589.84;;;21.08;52.70
32081;BME280;18593;51.426;7.030;2023-07-13T06:45:07;100585.72;;;21.16;52.12
32081;BME280;18593;51.426;7.030;2023-07-13T06:47:34;100584.59;;;21.22;52.76
32081;BME280;18593;51.426;7.030;2023-07-13T06:50:02;100579.69;;;21.29;52.53
32081;BME280;18593;51.426;7.030;2023-07-13T06:52:29;100597.06;;;21.28;52.64
32081;BME280;18593;51.426;7.030;2023-07-13T06:54:57;100584.88;;;21.31;52.37
32081;BME280;18593;51.426;7.030;2023-07-13T06:57:24;100591.84;;;21.42;52.23
32081;BME280;18593;51.426;7.030;2023-07-13T06:59:52;100588.84;;;21.49;52.74
32081;BME280;18593;51.426;7.030;2023-07-13T07:02:21;100595.63;;;21.46;52.38
32081;BME280;18593;51.426;7.030;2023-07-13T07:04:48;100598.59;;;21.50;52.78
32081;BME280;18593;51.426;7.030;2023-07-13T07:07:15;100601.53;;;21.58;52.84
32081;BME280;18593;51.426;7.030;2023-07-13T07:09:43;100608.00;;;21.68;53.27
32081;BME280;18593;51.426;7.030;2023-07-13T07:12:10;100597.63;;;21.75;52.98
32081;BME280;18593;51.426;7.030;2023-07-13T07:14:37;100603.22;;;21.89;51.96
32081;BME280;18593;51.426;7.030;2023-07-13T07:17:05;100604.53;;;21.96;52.55
32081;BME280;18593;51.426;7.030;2023-07-13T07:19:35;100608.88;;;21.97;52.36
32081;BME280;18593;51.426;7.030;2023-07-13T07:22:03;100600.22;;;21.90;52.19
32081;BME280;18593;51.426;7.030;2023-07-13T07:24:30;100600.00;;;21.87;52.73
32081;BME280;18593;51.426;7.030;2023-07-13T07:26:57;100604.88;;;21.84;51.50
32081;BME280;18593;51.426;7.030;2023-07-13T07:29:25;100610.59;;;21.83;51.91
32081;BME280;18593;51.426;7.030;2023-07-13T07:31:53;100613.06;;;21.79;51.80
32081;BME280;18593;51.426;7.030;2023-07-13T07:34:21;100609.22;;;21.85;52.43
32081;BME280;18593;51.426;7.030;2023-07-13T07:36:49;100611.75;;;21.77;52.39
32081;BME280;18593;51.426;7.030;2023-07-13T07:39:16;100607.09;;;21.82;52.58
32081;BME280;18593;51.426;7.030;2023-07-13T07:41:44;100612.72;;;21.91;52.48
32081;BME280;18593;51.426;7.030;2023-07-13T07:44:11;100612.81;;;22.10;52.39
32081;BME280;18593;51.426;7.030;2023-07-13T07:46:39;100612.59;;;22.06;52.24
32081;BME280;18593;51.426;7.030;2023-07-13T07:49:07;100615.13;;;21.98;51.72
32081;BME280;18593;51.426;7.030;2023-07-13T07:51:34;100619.28;;;21.85;52.38
32081;BME280;18593;51.426;7.030;2023-07-13T07:54:03;100616.72;;;21.59;51.73
32081;BME280;18593;51.426;7.030;2023-07-13T07:56:32;100624.31;;;21.63;52.61
32081;BME280;18593;51.426;7.030;2023-07-13T07:58:59;100617.06;;;21.53;52.65
32081;BME280;18593;51.426;7.030;2023-07-13T08:01:26;100624.94;;;21.49;53.03
32081;BME280;18593;51.426;7.030;2023-07-13T08:03:53;100610.94;;;21.71;53.65
32081;BME280;18593;51.426;7.030;2023-07-13T08:06:21;100617.28;;;21.96;53.55
32081;BME280;18593;51.426;7.030;2023-07-13T08:08:48;100621.56;;;22.12;52.77
32081;BME280;18593;51.426;7.030;2023-07-13T08:11:17;100625.38;;;22.11;52.58
32081;BME280;18593;51.426;7.030;2023-07-13T08:13:45;100626.28;;;21.96;52.03
32081;BME280;18593;51.426;7.030;2023-07-13T08:16:12;100627.13;;;21.92;52.07
32081;BME280;18593;51.426;7.030;2023-07-13T08:18:39;100618.88;;;22.02;52.87
32081;BME280;18593;51.426;7.030;2023-07-13T08:21:08;100614.72;;;22.15;52.27
32081;BME280;18593;51.426;7.030;2023-07-13T08:23:36;100622.38;;;22.07;52.16
32081;BME280;18593;51.426;7.030;2023-07-13T08:26:03;100613.69;;;22.05;51.88
32081;BME280;18593;51.426;7.030;2023-07-13T08:28:33;100618.94;;;21.97;51.01
32081;BME280;18593;51.426;7.030;2023-07-13T08:31:02;100620.59;;;21.93;51.87
32081;BME280;18593;51.426;7.030;2023-07-13T08:33:29;100623.50;;;22.01;51.36
32081;BME280;18593;51.426;7.030;2023-07-13T08:35:57;100615.31;;;22.12;52.81
32081;BME280;18593;51.426;7.030;2023-07-13T08:38:24;100612.97;;;22.29;52.62
32081;BME280;18593;51.426;7.030;2023-07-13T08:40:53;100611.56;;;22.36;51.58
32081;BME280;18593;51.426;7.030;2023-07-13T08:43:27;100622.19;;;22.33;52.24
32081;BME280;18593;51.426;7.030;2023-07-13T08:46:06;100606.78;;;22.23;51.19
32081;BME280;18593;51.426;7.030;2023-07-13T08:48:39;100603.59;;;22.16;51.55
32081;BME280;18593;51.426;7.030;2023-07-13T08:51:24;100613.66;;;22.16;53.40
32081;BME280;18593;51.426;7.030;2023-07-13T08:53:58;100612.81;;;22.10;52.34
32081;BME280;18593;51.426;7.030;2023-07-13T08:56:30;100618.03;;;22.06;52.74
32081;BME280;18593;51.426;7.030;2023-07-13T08:59:00;100608.56;;;21.99;51.80
32081;BME280;18593;51.426;7.030;2023-07-13T09:01:52;100614.09;;;21.89;52.11
32081;BME280;18593;51.426;7.030;2023-07-13T09:07:14;100610.31;;;21.84;52.95
32081;BME280;18593;51.426;7.030;2023-07-13T09:09:55;100613.56;;;21.87;53.07
32081;BME280;18593;51.426;7.030;2023-07-13T09:12:33;100613.31;;;21.83;52.23
32081;BME280;18593;51.426;7.030;2023-07-13T09:15:04;100611.13;;;21.85;53.09
32081;BME280;18593;51.426;7.030;2023-07-13T09:17:39;100609.50;;;21.84;53.00
32081;BME280;18593;51.426;7.030;2023-07-13T09:20:21;100609.97;;;21.96;53.27
32081;BME280;18593;51.426;7.030;2023-07-13T09:22:51;100616.94;;;22.07;53.74
32081;BME280;18593;51.426;7.030;2023-07-13T09:25:26;100613.63;;;22.10;53.58
32081;BME280;18593;51.426;7.030;2023-07-13T09:28:01;100612.53;;;22.17;52.27
32081;BME280;18593;51.426;7.030;2023-07-13T09:30:36;100606.59;;;22.09;52.77
32081;BME280;18593;51.426;7.030;2023-07-13T09:33:07;100608.72;;;22.18;53.08
32081;BME280;18593;51.426;7.030;2023-07-13T09:35:35;100623.38;;;22.22;54.60
32081;BME280;18593;51.426;7.030;2023-07-13T09:38:12;100619.22;;;22.29;53.37
32081;BME280;18593;51.426;7.030;2023-07-13T09:41:04;100609.75;;;22.27;53.21
32081;BME280;18593;51.426;7.030;2023-07-13T09:43:38;100614.16;;;22.18;52.34
32081;BME280;18593;51.426;7.030;2023-07-13T09:46:20;100621.47;;;22.22;53.63
32081;BME280;18593;51.426;7.030;2023-07-13T09:48:50;100621.56;;;22.12;52.46
32081;BME280;18593;51.426;7.030;2023-07-13T09:51:17;100614.69;;;22.20;54.02
32081;BME280;18593;51.426;7.030;2023-07-13T09:53:44;100613.31;;;22.22;52.98
32081;BME280;18593;51.426;7.030;2023-07-13T09:56:22;100625.06;;;22.13;52.69
32081;BME280;18593;51.426;7.030;2023-07-13T09:58:50;100614.53;;;22.01;52.82
32081;BME280;18593;51.426;7.030;2023-07-13T10:01:32;100623.50;;;22.01;52.48
32081;BME280;18593;51.426;7.030;2023-07-13T10:04:02;100625.09;;;22.07;53.66
32081;BME280;18593;51.426;7.030;2023-07-13T10:06:36;100620.91;;;22.20;53.78
32081;BME280;18593;51.426;7.030;2023-07-13T10:09:08;100629.72;;;22.41;55.73
32081;BME280;18593;51.426;7.030;2023-07-13T10:11:36;100625.94;;;22.37;53.02
32081;BME280;18593;51.426;7.030;2023-07-13T10:14:13;100630.22;;;22.43;53.22
32081;BME280;18593;51.426;7.030;2023-07-13T10:16:43;100635.16;;;22.41;52.58
32081;BME280;18593;51.426;7.030;2023-07-13T10:19:17;100627.56;;;22.38;52.53
32081;BME280;18593;51.426;7.030;2023-07-13T10:21:53;100636.56;;;22.33;52.31
32081;BME280;18593;51.426;7.030;2023-07-13T10:24:25;100639.38;;;22.23;52.27
32081;BME280;18593;51.426;7.030;2023-07-13T10:26:57;100640.78;;;22.21;53.28
32081;BME280;18593;51.426;7.030;2023-07-13T10:29:30;100641.88;;;22.15;53.41
32081;BME280;18593;51.426;7.030;2023-07-13T10:32:01;100631.59;;;22.12;53.02
32081;BME280;18593;51.426;7.030;2023-07-13T10:34:30;100638.66;;;22.13;52.99
32081;BME280;18593;51.426;7.030;2023-07-13T10:37:00;100641.88;;;22.15;52.83
32081;BME280;18593;51.426;7.030;2023-07-13T10:39:29;100639.72;;;22.17;52.58
32081;BME280;18593;51.426;7.030;2023-07-13T10:42:01;100651.75;;;22.00;52.15
32081;BME280;18593;51.426;7.030;2023-07-13T10:44:33;100650.63;;;22.12;54.15
32081;BME280;18593;51.426;7.030;2023-07-13T10:47:07;100648.94;;;22.10;51.48
32081;BME280;18593;51.426;7.030;2023-07-13T10:49:37;100641.13;;;22.04;52.67
32081;BME280;18593;51.426;7.030;2023-07-13T10:52:05;100656.88;;;22.07;52.63
32081;BME280;18593;51.426;7.030;2023-07-13T10:54:33;100642.22;;;22.03;52.97
32081;BME280;18593;51.426;7.030;2023-07-13T10:57:18;100650.63;;;22.06;53.11
32081;BME280;18593;51.426;7.030;2023-07-13T10:59:49;100653.34;;;22.12;53.17
32081;BME280;18593;51.426;7.030;2023-07-13T11:02:24;100658.41;;;22.23;52.54
32081;BME280;18593;51.426;7.030;2023-07-13T11:04:55;100648.59;;;22.27;52.72
32081;BME280;18593;51.426;7.030;2023-07-13T11:07:27;100649.78;;;22.16;51.81
32081;BME280;18593;51.426;7.030;2023-07-13T11:09:56;100651.31;;;22.27;52.57
32081;BME280;18593;51.426;7.030;2023-07-13T11:12:50;100653.13;;;22.37;52.10
32081;BME280;18593;51.426;7.030;2023-07-13T11:15:32;100639.16;;;22.49;52.55
32081;BME280;18593;51.426;7.030;2023-07-13T11:18:04;100646.84;;;22.42;53.00
32081;BME280;18593;51.426;7.030;2023-07-13T11:20:39;100647.66;;;22.42;52.82
32081;BME280;18593;51.426;7.030;2023-07-13T11:23:30;100650.44;;;22.32;51.72
32081;BME280;18593;51.426;7.030;2023-07-13T11:25:59;100657.50;;;22.33;52.15
32081;BME280;18593;51.426;7.030;2023-07-13T11:28:31;100643.81;;;22.43;53.42
32081;BME280;18593;51.426;7.030;2023-07-13T11:31:12;100639.81;;;22.65;53.77
32081;BME280;18593;51.426;7.030;2023-07-13T11:34:02;100631.03;;;22.73;50.78
32081;BME280;18593;51.426;7.030;2023-07-13T11:36:37;100632.38;;;22.75;49.12
32081;BME280;18593;51.426;7.030;2023-07-13T11:39:18;100634.50;;;22.78;51.19
32081;BME280;18593;51.426;7.030;2023-07-13T11:41:52;100635.41;;;22.69;50.53
32081;BME280;18593;51.426;7.030;2023-07-13T11:44:23;100631.19;;;22.57;49.76
32081;BME280;18593;51.426;7.030;2023-07-13T11:46:54;100629.38;;;22.48;50.10
32081;BME280;18593;51.426;7.030;2023-07-13T11:49:24;100633.75;;;22.44;50.30
32081;BME280;18593;51.426;7.030;2023-07-13T11:51:54;100630.13;;;22.53;51.39
32081;BME280;18593;51.426;7.030;2023-07-13T11:54:26;100623.47;;;22.70;52.12
32081;BME280;18593;51.426;7.030;2023-07-13T11:56:57;100624.97;;;22.81;51.24
32081;BME280;18593;51.426;7.030;2023-07-13T11:59:26;100630.34;;;22.86;49.78
32081;BME280;18593;51.426;7.030;2023-07-13T12:01:55;100621.66;;;22.84;49.76
32081;BME280;18593;51.426;7.030;2023-07-13T12:04:26;100621.59;;;22.94;50.28
32081;BME280;18593;51.426;7.030;2023-07-13T12:07:05;100612.75;;;23.02;47.67
32081;BME280;18593;51.426;7.030;2023-07-13T12:09:34;100616.03;;;23.04;47.68
32081;BME280;18593;51.426;7.030;2023-07-13T12:12:03;100617.63;;;23.05;48.98
32081;BME280;18593;51.426;7.030;2023-07-13T12:14:34;100618.31;;;23.16;48.60
32081;BME280;18593;51.426;7.030;2023-07-13T12:17:04;100617.50;;;23.16;47.12
32081;BME280;18593;51.426;7.030;2023-07-13T12:19:35;100619.72;;;23.13;46.95
32081;BME280;18593;51.426;7.030;2023-07-13T12:22:08;100610.69;;;23.18;48.61
32081;BME280;18593;51.426;7.030;2023-07-13T12:24:36;100612.00;;;23.21;46.08
32081;BME280;18593;51.426;7.030;2023-07-13T12:27:05;100615.78;;;23.01;47.00
32081;BME280;18593;51.426;7.030;2023-07-13T12:29:33;100613.69;;;22.93;46.96
32081;BME280;18593;51.426;7.030;2023-07-13T12:32:00;100618.09;;;22.88;46.43
32081;BME280;18593;51.426;7.030;2023-07-13T12:34:27;100616.34;;;22.98;47.55
32081;BME280;18593;51.426;7.030;2023-07-13T12:36:58;100609.47;;;23.05;47.99
32081;BME280;18593;51.426;7.030;2023-07-13T12:39:33;100613.69;;;22.93;47.89
32081;BME280;18593;51.426;7.030;2023-07-13T12:42:19;100619.97;;;22.88;47.16
32081;BME280;18593;51.426;7.030;2023-07-13T12:44:50;100617.22;;;22.93;49.74
32081;BME280;18593;51.426;7.030;2023-07-13T12:47:20;100618.88;;;22.94;47.26
32081;BME280;18593;51.426;7.030;2023-07-13T12:49:53;100615.47;;;23.02;48.69
32081;BME280;18593;51.426;7.030;2023-07-13T12:52:24;100614.28;;;23.13;47.72
32081;BME280;18593;51.426;7.030;2023-07-13T12:55:01;100603.97;;;23.10;45.95
32081;BME280;18593;51.426;7.030;2023-07-13T12:57:30;100617.94;;;23.04;45.99
32081;BME280;18593;51.426;7.030;2023-07-13T12:59:57;100616.16;;;22.94;46.20
32081;BME280;18593;51.426;7.030;2023-07-13T13:02:29;100621.34;;;22.91;45.70
32081;BME280;18593;51.426;7.030;2023-07-13T13:04:58;100625.03;;;22.76;46.21
32081;BME280;18593;51.426;7.030;2023-07-13T13:07:26;100628.34;;;22.68;46.92